sensor_id;sensor_type;location;lat;lon;timestamp;P1;durP1;ratioP1;P2;durP2;ratioP2
53857;SDS011;39763;51.188;6.690;2022-08-06T00:00:09;9.45;;;3.03;;
53857;SDS011;39763;51.188;6.690;2022-08-06T00:01:44;7.55;;;3.03;;
53857;SDS011;39763;51.188;6.690;2022-08-06T00:03:16;9.00;;;3.05;;
53857;SDS011;39763;51.188;6.690;2022-08-06T00:04:52;10.88;;;3.00;;
53857;SDS011;39763;51.188;6.690;2022-08-06T00:06:25;7.65;;;3.00;;
53857;SDS011;39763;51.188;6.690;2022-08-06T00:08:02;8.38;;;3.10;;
53857;SDS011;39763;51.188;6.690;2022-08-06T00:09:37;9.10;;;3.20;;
53857;SDS011;39763;51.188;6.690;2022-08-06T00:11:28;6.85;;;2.90;;
53857;SDS011;39763;51.188;6.690;2022-08-06T00:13:04;9.27;;;3.30;;
53857;SDS011;39763;51.188;6.690;2022-08-06T00:14:44;8.07;;;3.22;;
53857;SDS011;39763;51.188;6.690;2022-08-06T00:16:16;7.75;;;3.25;;
53857;SDS011;39763;51.188;6.690;2022-08-06T00:18:08;8.10;;;3.00;;
53857;SDS011;39763;51.188;6.690;2022-08-06T00:19:43;7.47;;;3.00;;
53857;SDS011;39763;51.188;6.690;2022-08-06T00:21:30;8.15;;;2.90;;
53857;SDS011;39763;51.188;6.690;2022-08-06T00:23:14;5.82;;;2.80;;
53857;SDS011;39763;51.188;6.690;2022-08-06T00:24:47;6.78;;;3.15;;
53857;SDS011;39763;51.188;6.690;2022-08-06T00:26:19;8.88;;;3.08;;
53857;SDS011;39763;51.188;6.690;2022-08-06T00:28:00;9.35;;;3.10;;
53857;SDS011;39763;51.188;6.690;2022-08-06T00:29:34;8.52;;;3.30;;
53857;SDS011;39763;51.188;6.690;2022-08-06T00:31:21;7.57;;;2.97;;
53857;SDS011;39763;51.188;6.690;2022-08-06T00:32:53;8.35;;;3.40;;
53857;SDS011;39763;51.188;6.690;2022-08-06T00:34:27;8.10;;;2.80;;
53857;SDS011;39763;51.188;6.690;2022-08-06T00:35:59;9.45;;;3.28;;
53857;SDS011;39763;51.188;6.690;2022-08-06T00:37:31;8.05;;;3.25;;
53857;SDS011;39763;51.188;6.690;2022-08-06T00:39:24;9.15;;;3.30;;
53857;SDS011;39763;51.188;6.690;2022-08-06T00:40:59;7.28;;;3.33;;
53857;SDS011;39763;51.188;6.690;2022-08-06T00:42:33;6.32;;;3.20;;
53857;SDS011;39763;51.188;6.690;2022-08-06T00:44:05;7.43;;;3.08;;
53857;SDS011;39763;51.188;6.690;2022-08-06T00:45:41;6.78;;;3.05;;
53857;SDS011;39763;51.188;6.690;2022-08-06T00:47:16;8.00;;;2.92;;
53857;SDS011;39763;51.188;6.690;2022-08-06T00:49:08;10.10;;;3.40;;
53857;SDS011;39763;51.188;6.690;2022-08-06T00:50:42;8.43;;;3.20;;
53857;SDS011;39763;51.188;6.690;2022-08-06T00:52:14;9.15;;;3.38;;
53857;SDS011;39763;51.188;6.690;2022-08-06T00:53:56;8.60;;;3.20;;
53857;SDS011;39763;51.188;6.690;2022-08-06T00:55:30;9.80;;;3.10;;
53857;SDS011;39763;51.188;6.690;2022-08-06T00:57:06;8.48;;;2.88;;
53857;SDS011;39763;51.188;6.690;2022-08-06T00:58:42;5.45;;;2.80;;
53857;SDS011;39763;51.188;6.690;2022-08-06T01:00:14;7.28;;;2.90;;
53857;SDS011;39763;51.188;6.690;2022-08-06T01:02:01;9.13;;;3.17;;
53857;SDS011;39763;51.188;6.690;2022-08-06T01:03:40;7.00;;;3.23;;
53857;SDS011;39763;51.188;6.690;2022-08-06T01:05:22;7.85;;;3.22;;
53857;SDS011;39763;51.188;6.690;2022-08-06T01:07:14;6.97;;;3.08;;
53857;SDS011;39763;51.188;6.690;2022-08-06T01:08:46;6.75;;;3.00;;
53857;SDS011;39763;51.188;6.690;2022-08-06T01:10:19;9.35;;;3.35;;
53857;SDS011;39763;51.188;6.690;2022-08-06T01:12:03;10.45;;;3.20;;
53857;SDS011;39763;51.188;6.690;2022-08-06T01:13:38;8.48;;;3.28;;
53857;SDS011;39763;51.188;6.690;2022-08-06T01:15:30;10.25;;;3.42;;
53857;SDS011;39763;51.188;6.690;2022-08-06T01:17:24;9.60;;;3.53;;
53857;SDS011;39763;51.188;6.690;2022-08-06T01:19:00;10.30;;;3.60;;
53857;SDS011;39763;51.188;6.690;2022-08-06T01:20:54;8.38;;;3.28;;
53857;SDS011;39763;51.188;6.690;2022-08-06T01:23:02;7.85;;;3.42;;
53857;SDS011;39763;51.188;6.690;2022-08-06T01:25:02;8.55;;;3.25;;
53857;SDS011;39763;51.188;6.690;2022-08-06T01:26:46;7.10;;;3.47;;
53857;SDS011;39763;51.188;6.690;2022-08-06T01:28:28;8.38;;;3.28;;
53857;SDS011;39763;51.188;6.690;2022-08-06T01:30:10;9.55;;;3.70;;
53857;SDS011;39763;51.188;6.690;2022-08-06T01:31:51;7.78;;;3.33;;
53857;SDS011;39763;51.188;6.690;2022-08-06T01:33:28;10.02;;;3.65;;
53857;SDS011;39763;51.188;6.690;2022-08-06T01:35:10;8.63;;;3.70;;
53857;SDS011;39763;51.188;6.690;2022-08-06T01:37:08;11.98;;;4.05;;
53857;SDS011;39763;51.188;6.690;2022-08-06T01:38:45;12.43;;;3.78;;
53857;SDS011;39763;51.188;6.690;2022-08-06T01:40:32;10.65;;;3.85;;
53857;SDS011;39763;51.188;6.690;2022-08-06T01:42:06;10.05;;;4.18;;
53857;SDS011;39763;51.188;6.690;2022-08-06T01:43:42;7.25;;;3.70;;
53857;SDS011;39763;51.188;6.690;2022-08-06T01:45:35;9.25;;;3.80;;
53857;SDS011;39763;51.188;6.690;2022-08-06T01:47:25;7.55;;;3.75;;
53857;SDS011;39763;51.188;6.690;2022-08-06T01:49:20;10.80;;;3.75;;
53857;SDS011;39763;51.188;6.690;2022-08-06T01:51:15;11.00;;;4.00;;
53857;SDS011;39763;51.188;6.690;2022-08-06T01:53:09;8.20;;;3.63;;
53857;SDS011;39763;51.188;6.690;2022-08-06T01:54:47;8.30;;;3.40;;
53857;SDS011;39763;51.188;6.690;2022-08-06T01:56:22;7.80;;;3.50;;
53857;SDS011;39763;51.188;6.690;2022-08-06T01:58:15;9.32;;;3.80;;
53857;SDS011;39763;51.188;6.690;2022-08-06T02:00:03;11.15;;;3.72;;
53857;SDS011;39763;51.188;6.690;2022-08-06T02:01:42;9.50;;;4.18;;
53857;SDS011;39763;51.188;6.690;2022-08-06T02:03:26;8.85;;;3.47;;
53857;SDS011;39763;51.188;6.690;2022-08-06T02:05:21;8.88;;;3.50;;
53857;SDS011;39763;51.188;6.690;2022-08-06T02:07:02;10.13;;;3.95;;
53857;SDS011;39763;51.188;6.690;2022-08-06T02:08:58;9.85;;;3.53;;
53857;SDS011;39763;51.188;6.690;2022-08-06T02:10:54;7.63;;;3.20;;
53857;SDS011;39763;51.188;6.690;2022-08-06T02:12:28;7.85;;;3.08;;
53857;SDS011;39763;51.188;6.690;2022-08-06T02:14:02;9.13;;;3.60;;
53857;SDS011;39763;51.188;6.690;2022-08-06T02:15:39;9.43;;;3.55;;
53857;SDS011;39763;51.188;6.690;2022-08-06T02:17:31;9.70;;;3.58;;
53857;SDS011;39763;51.188;6.690;2022-08-06T02:19:26;10.38;;;3.40;;
53857;SDS011;39763;51.188;6.690;2022-08-06T02:21:21;8.50;;;3.75;;
53857;SDS011;39763;51.188;6.690;2022-08-06T02:23:03;10.38;;;3.72;;
53857;SDS011;39763;51.188;6.690;2022-08-06T02:24:39;9.68;;;3.45;;
53857;SDS011;39763;51.188;6.690;2022-08-06T02:26:15;8.77;;;3.53;;
53857;SDS011;39763;51.188;6.690;2022-08-06T02:27:50;12.32;;;4.25;;
53857;SDS011;39763;51.188;6.690;2022-08-06T02:29:30;10.13;;;3.63;;
53857;SDS011;39763;51.188;6.690;2022-08-06T02:31:24;8.57;;;3.88;;
53857;SDS011;39763;51.188;6.690;2022-08-06T02:32:57;9.48;;;3.78;;
53857;SDS011;39763;51.188;6.690;2022-08-06T02:34:33;8.10;;;3.53;;
53857;SDS011;39763;51.188;6.690;2022-08-06T02:36:07;9.52;;;3.70;;
53857;SDS011;39763;51.188;6.690;2022-08-06T02:38:00;10.05;;;3.75;;
53857;SDS011;39763;51.188;6.690;2022-08-06T02:39:41;7.70;;;3.58;;
53857;SDS011;39763;51.188;6.690;2022-08-06T02:41:23;9.10;;;3.90;;
53857;SDS011;39763;51.188;6.690;2022-08-06T02:43:04;8.55;;;3.60;;
53857;SDS011;39763;51.188;6.690;2022-08-06T02:44:40;11.00;;;3.97;;
53857;SDS011;39763;51.188;6.690;2022-08-06T02:46:21;10.15;;;3.67;;
53857;SDS011;39763;51.188;6.690;2022-08-06T02:48:02;9.35;;;4.00;;
53857;SDS011;39763;51.188;6.690;2022-08-06T02:49:40;9.55;;;3.92;;
53857;SDS011;39763;51.188;6.690;2022-08-06T02:51:28;9.88;;;4.10;;
53857;SDS011;39763;51.188;6.690;2022-08-06T02:53:25;10.27;;;4.22;;
53857;SDS011;39763;51.188;6.690;2022-08-06T02:55:09;11.35;;;4.18;;
53857;SDS011;39763;51.188;6.690;2022-08-06T02:56:45;14.63;;;4.57;;
53857;SDS011;39763;51.188;6.690;2022-08-06T02:58:19;10.13;;;3.88;;
53857;SDS011;39763;51.188;6.690;2022-08-06T03:00:08;11.95;;;4.28;;
53857;SDS011;39763;51.188;6.690;2022-08-06T03:01:43;9.45;;;4.13;;
53857;SDS011;39763;51.188;6.690;2022-08-06T03:03:22;9.80;;;4.10;;
53857;SDS011;39763;51.188;6.690;2022-08-06T03:05:06;10.02;;;4.07;;
53857;SDS011;39763;51.188;6.690;2022-08-06T03:06:45;11.50;;;4.03;;
53857;SDS011;39763;51.188;6.690;2022-08-06T03:08:22;11.50;;;3.92;;
53857;SDS011;39763;51.188;6.690;2022-08-06T03:09:58;9.73;;;4.10;;
53857;SDS011;39763;51.188;6.690;2022-08-06T03:11:32;7.72;;;3.72;;
53857;SDS011;39763;51.188;6.690;2022-08-06T03:13:08;11.82;;;4.15;;
53857;SDS011;39763;51.188;6.690;2022-08-06T03:14:43;10.30;;;3.50;;
53857;SDS011;39763;51.188;6.690;2022-08-06T03:16:36;9.75;;;4.20;;
53857;SDS011;39763;51.188;6.690;2022-08-06T03:18:18;9.98;;;4.18;;
53857;SDS011;39763;51.188;6.690;2022-08-06T03:19:54;10.57;;;4.22;;
53857;SDS011;39763;51.188;6.690;2022-08-06T03:21:30;10.93;;;4.38;;
53857;SDS011;39763;51.188;6.690;2022-08-06T03:23:08;11.70;;;4.05;;
53857;SDS011;39763;51.188;6.690;2022-08-06T03:24:41;8.63;;;4.03;;
53857;SDS011;39763;51.188;6.690;2022-08-06T03:26:17;10.57;;;4.57;;
53857;SDS011;39763;51.188;6.690;2022-08-06T03:27:51;8.52;;;3.88;;
53857;SDS011;39763;51.188;6.690;2022-08-06T03:29:33;11.10;;;4.25;;
53857;SDS011;39763;51.188;6.690;2022-08-06T03:31:06;10.15;;;3.92;;
53857;SDS011;39763;51.188;6.690;2022-08-06T03:32:39;10.10;;;4.22;;
53857;SDS011;39763;51.188;6.690;2022-08-06T03:34:24;8.40;;;4.20;;
53857;SDS011;39763;51.188;6.690;2022-08-06T03:35:59;11.55;;;4.60;;
53857;SDS011;39763;51.188;6.690;2022-08-06T03:37:34;10.57;;;3.92;;
53857;SDS011;39763;51.188;6.690;2022-08-06T03:39:27;11.00;;;4.43;;
53857;SDS011;39763;51.188;6.690;2022-08-06T03:41:01;12.10;;;4.28;;
53857;SDS011;39763;51.188;6.690;2022-08-06T03:42:33;9.13;;;3.88;;
53857;SDS011;39763;51.188;6.690;2022-08-06T03:44:07;8.57;;;4.00;;
53857;SDS011;39763;51.188;6.690;2022-08-06T03:45:43;12.30;;;4.50;;
53857;SDS011;39763;51.188;6.690;2022-08-06T03:47:36;11.43;;;4.45;;
53857;SDS011;39763;51.188;6.690;2022-08-06T03:49:40;9.93;;;4.43;;
53857;SDS011;39763;51.188;6.690;2022-08-06T03:51:20;10.65;;;4.22;;
53857;SDS011;39763;51.188;6.690;2022-08-06T03:53:15;10.57;;;4.30;;
53857;SDS011;39763;51.188;6.690;2022-08-06T03:54:57;12.98;;;4.25;;
53857;SDS011;39763;51.188;6.690;2022-08-06T03:56:36;10.93;;;4.03;;
53857;SDS011;39763;51.188;6.690;2022-08-06T03:58:16;11.98;;;4.28;;
53857;SDS011;39763;51.188;6.690;2022-08-06T03:59:59;10.52;;;4.40;;
53857;SDS011;39763;51.188;6.690;2022-08-06T04:01:42;9.50;;;4.43;;
53857;SDS011;39763;51.188;6.690;2022-08-06T04:03:21;10.00;;;4.50;;
53857;SDS011;39763;51.188;6.690;2022-08-06T04:04:56;10.15;;;4.47;;
53857;SDS011;39763;51.188;6.690;2022-08-06T04:06:31;10.30;;;4.20;;
53857;SDS011;39763;51.188;6.690;2022-08-06T04:08:05;11.02;;;4.45;;
53857;SDS011;39763;51.188;6.690;2022-08-06T04:09:38;10.45;;;4.63;;
53857;SDS011;39763;51.188;6.690;2022-08-06T04:11:31;13.45;;;4.65;;
53857;SDS011;39763;51.188;6.690;2022-08-06T04:13:24;9.10;;;4.43;;
53857;SDS011;39763;51.188;6.690;2022-08-06T04:15:18;9.68;;;4.03;;
53857;SDS011;39763;51.188;6.690;2022-08-06T04:16:50;12.32;;;5.00;;
53857;SDS011;39763;51.188;6.690;2022-08-06T04:18:25;9.07;;;4.57;;
53857;SDS011;39763;51.188;6.690;2022-08-06T04:20:01;15.25;;;4.75;;
53857;SDS011;39763;51.188;6.690;2022-08-06T04:21:33;10.20;;;4.43;;
53857;SDS011;39763;51.188;6.690;2022-08-06T04:23:25;11.05;;;4.65;;
53857;SDS011;39763;51.188;6.690;2022-08-06T04:25:09;13.10;;;4.63;;
53857;SDS011;39763;51.188;6.690;2022-08-06T04:26:44;11.48;;;4.55;;
53857;SDS011;39763;51.188;6.690;2022-08-06T04:28:20;11.23;;;4.30;;
53857;SDS011;39763;51.188;6.690;2022-08-06T04:29:59;11.32;;;4.70;;
53857;SDS011;39763;51.188;6.690;2022-08-06T04:31:33;12.68;;;6.80;;
53857;SDS011;39763;51.188;6.690;2022-08-06T04:33:26;11.25;;;5.10;;
53857;SDS011;39763;51.188;6.690;2022-08-06T04:37:00;10.48;;;4.70;;
53857;SDS011;39763;51.188;6.690;2022-08-06T04:38:35;14.45;;;4.80;;
53857;SDS011;39763;51.188;6.690;2022-08-06T04:40:10;11.82;;;4.72;;
53857;SDS011;39763;51.188;6.690;2022-08-06T04:43:35;12.02;;;4.65;;
53857;SDS011;39763;51.188;6.690;2022-08-06T04:45:22;11.50;;;5.25;;
53857;SDS011;39763;51.188;6.690;2022-08-06T04:47:15;11.18;;;4.60;;
53857;SDS011;39763;51.188;6.690;2022-08-06T04:48:50;14.30;;;4.80;;
53857;SDS011;39763;51.188;6.690;2022-08-06T04:50:32;12.60;;;5.07;;
53857;SDS011;39763;51.188;6.690;2022-08-06T04:52:04;10.95;;;4.50;;
53857;SDS011;39763;51.188;6.690;2022-08-06T04:53:56;13.45;;;5.20;;
53857;SDS011;39763;51.188;6.690;2022-08-06T04:55:28;12.00;;;4.90;;
53857;SDS011;39763;51.188;6.690;2022-08-06T04:57:05;10.50;;;4.90;;
53857;SDS011;39763;51.188;6.690;2022-08-06T04:58:52;12.25;;;5.43;;
53857;SDS011;39763;51.188;6.690;2022-08-06T05:00:24;12.93;;;4.97;;
53857;SDS011;39763;51.188;6.690;2022-08-06T05:02:17;13.38;;;4.93;;
53857;SDS011;39763;51.188;6.690;2022-08-06T05:03:49;13.90;;;5.03;;
53857;SDS011;39763;51.188;6.690;2022-08-06T05:05:42;14.13;;;5.50;;
53857;SDS011;39763;51.188;6.690;2022-08-06T05:07:18;10.68;;;5.05;;
53857;SDS011;39763;51.188;6.690;2022-08-06T05:08:53;12.48;;;5.07;;
53857;SDS011;39763;51.188;6.690;2022-08-06T05:10:30;15.00;;;6.25;;
53857;SDS011;39763;51.188;6.690;2022-08-06T05:12:11;15.07;;;5.72;;
53857;SDS011;39763;51.188;6.690;2022-08-06T05:13:47;11.95;;;5.22;;
53857;SDS011;39763;51.188;6.690;2022-08-06T05:15:26;12.07;;;5.20;;
53857;SDS011;39763;51.188;6.690;2022-08-06T05:17:09;13.75;;;5.60;;
53857;SDS011;39763;51.188;6.690;2022-08-06T05:18:46;12.43;;;5.38;;
53857;SDS011;39763;51.188;6.690;2022-08-06T05:20:46;14.52;;;6.05;;
53857;SDS011;39763;51.188;6.690;2022-08-06T05:22:20;10.55;;;5.47;;
53857;SDS011;39763;51.188;6.690;2022-08-06T05:24:14;13.32;;;5.88;;
53857;SDS011;39763;51.188;6.690;2022-08-06T05:25:46;11.50;;;5.40;;
53857;SDS011;39763;51.188;6.690;2022-08-06T05:27:27;12.55;;;5.65;;
53857;SDS011;39763;51.188;6.690;2022-08-06T05:29:19;11.35;;;5.65;;
53857;SDS011;39763;51.188;6.690;2022-08-06T05:30:54;12.20;;;5.50;;
53857;SDS011;39763;51.188;6.690;2022-08-06T05:32:27;12.63;;;5.47;;
53857;SDS011;39763;51.188;6.690;2022-08-06T05:33:59;12.10;;;5.32;;
53857;SDS011;39763;51.188;6.690;2022-08-06T05:35:35;13.73;;;5.72;;
53857;SDS011;39763;51.188;6.690;2022-08-06T05:37:17;12.40;;;5.43;;
53857;SDS011;39763;51.188;6.690;2022-08-06T05:38:56;15.90;;;5.78;;
53857;SDS011;39763;51.188;6.690;2022-08-06T05:40:30;17.30;;;6.15;;
53857;SDS011;39763;51.188;6.690;2022-08-06T05:42:25;13.10;;;5.72;;
53857;SDS011;39763;51.188;6.690;2022-08-06T05:43:58;16.98;;;6.28;;
53857;SDS011;39763;51.188;6.690;2022-08-06T05:45:33;12.52;;;5.95;;
53857;SDS011;39763;51.188;6.690;2022-08-06T05:47:11;13.70;;;5.70;;
53857;SDS011;39763;51.188;6.690;2022-08-06T05:48:49;13.85;;;5.53;;
53857;SDS011;39763;51.188;6.690;2022-08-06T05:50:27;10.60;;;4.93;;
53857;SDS011;39763;51.188;6.690;2022-08-06T05:52:04;10.32;;;5.05;;
53857;SDS011;39763;51.188;6.690;2022-08-06T05:53:42;17.60;;;5.65;;
53857;SDS011;39763;51.188;6.690;2022-08-06T05:55:37;13.38;;;5.28;;
53857;SDS011;39763;51.188;6.690;2022-08-06T05:57:11;15.15;;;6.80;;
53857;SDS011;39763;51.188;6.690;2022-08-06T05:58:49;16.27;;;6.82;;
53857;SDS011;39763;51.188;6.690;2022-08-06T06:00:25;19.02;;;7.22;;
53857;SDS011;39763;51.188;6.690;2022-08-06T06:02:14;19.55;;;7.13;;
53857;SDS011;39763;51.188;6.690;2022-08-06T06:03:49;28.42;;;9.77;;
53857;SDS011;39763;51.188;6.690;2022-08-06T06:05:25;17.00;;;6.57;;
53857;SDS011;39763;51.188;6.690;2022-08-06T06:07:18;15.80;;;6.63;;
53857;SDS011;39763;51.188;6.690;2022-08-06T06:09:12;14.32;;;6.28;;
53857;SDS011;39763;51.188;6.690;2022-08-06T06:10:44;14.75;;;6.18;;
53857;SDS011;39763;51.188;6.690;2022-08-06T06:12:24;14.52;;;6.20;;
53857;SDS011;39763;51.188;6.690;2022-08-06T06:14:03;15.18;;;6.22;;
53857;SDS011;39763;51.188;6.690;2022-08-06T06:15:38;16.08;;;6.07;;
53857;SDS011;39763;51.188;6.690;2022-08-06T06:17:40;13.45;;;5.15;;
53857;SDS011;39763;51.188;6.690;2022-08-06T06:19:22;18.88;;;5.85;;
53857;SDS011;39763;51.188;6.690;2022-08-06T06:21:10;13.80;;;5.43;;
53857;SDS011;39763;51.188;6.690;2022-08-06T06:23:04;12.52;;;5.32;;
53857;SDS011;39763;51.188;6.690;2022-08-06T06:26:21;13.45;;;4.60;;
53857;SDS011;39763;51.188;6.690;2022-08-06T06:28:05;12.82;;;5.45;;
53857;SDS011;39763;51.188;6.690;2022-08-06T06:30:00;16.23;;;6.15;;
53857;SDS011;39763;51.188;6.690;2022-08-06T06:31:45;13.23;;;5.53;;
53857;SDS011;39763;51.188;6.690;2022-08-06T06:33:39;17.23;;;6.05;;
53857;SDS011;39763;51.188;6.690;2022-08-06T06:35:23;12.02;;;5.63;;
53857;SDS011;39763;51.188;6.690;2022-08-06T06:37:07;12.27;;;5.18;;
53857;SDS011;39763;51.188;6.690;2022-08-06T06:38:51;12.35;;;4.60;;
53857;SDS011;39763;51.188;6.690;2022-08-06T06:40:38;13.90;;;4.82;;
53857;SDS011;39763;51.188;6.690;2022-08-06T06:42:31;15.05;;;6.57;;
53857;SDS011;39763;51.188;6.690;2022-08-06T06:44:11;13.23;;;7.93;;
53857;SDS011;39763;51.188;6.690;2022-08-06T06:46:09;13.65;;;4.82;;
53857;SDS011;39763;51.188;6.690;2022-08-06T06:48:08;11.77;;;4.13;;
53857;SDS011;39763;51.188;6.690;2022-08-06T06:49:46;16.77;;;9.48;;
53857;SDS011;39763;51.188;6.690;2022-08-06T06:51:33;11.90;;;5.28;;
53857;SDS011;39763;51.188;6.690;2022-08-06T06:53:28;9.95;;;3.78;;
53857;SDS011;39763;51.188;6.690;2022-08-06T06:55:24;14.98;;;5.10;;
53857;SDS011;39763;51.188;6.690;2022-08-06T06:57:23;16.00;;;6.03;;
53857;SDS011;39763;51.188;6.690;2022-08-06T06:59:14;13.63;;;5.60;;
53857;SDS011;39763;51.188;6.690;2022-08-06T07:00:50;12.15;;;4.65;;
53857;SDS011;39763;51.188;6.690;2022-08-06T07:02:44;12.68;;;5.30;;
53857;SDS011;39763;51.188;6.690;2022-08-06T07:04:20;12.00;;;4.93;;
53857;SDS011;39763;51.188;6.690;2022-08-06T07:05:57;13.30;;;4.75;;
53857;SDS011;39763;51.188;6.690;2022-08-06T07:07:40;10.15;;;4.95;;
53857;SDS011;39763;51.188;6.690;2022-08-06T07:11:13;14.48;;;3.90;;
53857;SDS011;39763;51.188;6.690;2022-08-06T07:12:52;12.23;;;3.90;;
53857;SDS011;39763;51.188;6.690;2022-08-06T07:14:25;12.05;;;4.20;;
53857;SDS011;39763;51.188;6.690;2022-08-06T07:16:04;11.55;;;3.80;;
53857;SDS011;39763;51.188;6.690;2022-08-06T07:17:38;10.88;;;4.00;;
53857;SDS011;39763;51.188;6.690;2022-08-06T07:19:19;12.13;;;4.80;;
53857;SDS011;39763;51.188;6.690;2022-08-06T07:20:51;11.18;;;5.13;;
53857;SDS011;39763;51.188;6.690;2022-08-06T07:22:24;12.20;;;4.60;;
53857;SDS011;39763;51.188;6.690;2022-08-06T07:23:58;12.75;;;4.10;;
53857;SDS011;39763;51.188;6.690;2022-08-06T07:25:51;9.70;;;3.60;;
53857;SDS011;39763;51.188;6.690;2022-08-06T07:27:26;10.10;;;4.15;;
53857;SDS011;39763;51.188;6.690;2022-08-06T07:29:14;8.57;;;3.45;;
53857;SDS011;39763;51.188;6.690;2022-08-06T07:31:06;11.95;;;4.70;;
53857;SDS011;39763;51.188;6.690;2022-08-06T07:32:40;10.90;;;4.00;;
53857;SDS011;39763;51.188;6.690;2022-08-06T07:34:18;9.30;;;3.30;;
53857;SDS011;39763;51.188;6.690;2022-08-06T07:35:51;9.18;;;3.65;;
53857;SDS011;39763;51.188;6.690;2022-08-06T07:37:25;7.40;;;3.35;;
53857;SDS011;39763;51.188;6.690;2022-08-06T07:39:10;9.25;;;3.30;;
53857;SDS011;39763;51.188;6.690;2022-08-06T07:40:47;9.15;;;3.05;;
53857;SDS011;39763;51.188;6.690;2022-08-06T07:42:25;10.85;;;3.50;;
53857;SDS011;39763;51.188;6.690;2022-08-06T07:43:59;12.07;;;3.70;;
53857;SDS011;39763;51.188;6.690;2022-08-06T07:45:34;10.45;;;4.13;;
53857;SDS011;39763;51.188;6.690;2022-08-06T07:47:26;8.20;;;3.00;;
53857;SDS011;39763;51.188;6.690;2022-08-06T07:49:21;8.40;;;2.67;;
53857;SDS011;39763;51.188;6.690;2022-08-06T07:51:15;8.98;;;2.65;;
53857;SDS011;39763;51.188;6.690;2022-08-06T07:53:04;10.75;;;2.80;;
53857;SDS011;39763;51.188;6.690;2022-08-06T07:54:36;7.30;;;2.17;;
53857;SDS011;39763;51.188;6.690;2022-08-06T07:56:09;6.53;;;2.53;;
53857;SDS011;39763;51.188;6.690;2022-08-06T07:57:42;7.50;;;2.78;;
53857;SDS011;39763;51.188;6.690;2022-08-06T07:59:28;7.88;;;2.85;;
53857;SDS011;39763;51.188;6.690;2022-08-06T08:01:03;9.68;;;3.20;;
53857;SDS011;39763;51.188;6.690;2022-08-06T08:02:37;9.77;;;3.60;;
53857;SDS011;39763;51.188;6.690;2022-08-06T08:04:09;10.90;;;3.78;;
53857;SDS011;39763;51.188;6.690;2022-08-06T08:06:20;8.52;;;2.88;;
53857;SDS011;39763;51.188;6.690;2022-08-06T08:07:54;6.97;;;2.80;;
53857;SDS011;39763;51.188;6.690;2022-08-06T08:09:28;8.05;;;2.47;;
53857;SDS011;39763;51.188;6.690;2022-08-06T08:11:22;10.85;;;3.47;;
53857;SDS011;39763;51.188;6.690;2022-08-06T08:13:15;10.25;;;2.92;;
53857;SDS011;39763;51.188;6.690;2022-08-06T08:15:09;7.78;;;2.45;;
53857;SDS011;39763;51.188;6.690;2022-08-06T08:16:51;7.43;;;2.92;;
53857;SDS011;39763;51.188;6.690;2022-08-06T08:18:27;8.30;;;2.70;;
53857;SDS011;39763;51.188;6.690;2022-08-06T08:20:01;7.18;;;2.70;;
53857;SDS011;39763;51.188;6.690;2022-08-06T08:21:41;7.28;;;2.60;;
53857;SDS011;39763;51.188;6.690;2022-08-06T08:23:15;4.35;;;2.08;;
53857;SDS011;39763;51.188;6.690;2022-08-06T08:25:03;10.15;;;3.20;;
53857;SDS011;39763;51.188;6.690;2022-08-06T08:26:36;7.43;;;2.70;;
53857;SDS011;39763;51.188;6.690;2022-08-06T08:28:28;6.38;;;2.10;;
53857;SDS011;39763;51.188;6.690;2022-08-06T08:30:03;8.15;;;2.72;;
53857;SDS011;39763;51.188;6.690;2022-08-06T08:31:37;6.38;;;1.95;;
53857;SDS011;39763;51.188;6.690;2022-08-06T08:33:10;9.10;;;2.42;;
53857;SDS011;39763;51.188;6.690;2022-08-06T08:34:48;6.80;;;2.30;;
53857;SDS011;39763;51.188;6.690;2022-08-06T08:36:24;6.75;;;2.75;;
53857;SDS011;39763;51.188;6.690;2022-08-06T08:38:01;8.63;;;3.22;;
53857;SDS011;39763;51.188;6.690;2022-08-06T08:39:33;8.02;;;2.92;;
53857;SDS011;39763;51.188;6.690;2022-08-06T08:41:08;7.85;;;2.80;;
53857;SDS011;39763;51.188;6.690;2022-08-06T08:42:52;6.43;;;2.08;;
53857;SDS011;39763;51.188;6.690;2022-08-06T08:44:36;11.05;;;2.80;;
53857;SDS011;39763;51.188;6.690;2022-08-06T08:46:09;8.38;;;2.85;;
53857;SDS011;39763;51.188;6.690;2022-08-06T08:47:43;6.03;;;2.22;;
53857;SDS011;39763;51.188;6.690;2022-08-06T08:49:27;5.60;;;2.03;;
53857;SDS011;39763;51.188;6.690;2022-08-06T08:51:07;10.30;;;2.67;;
53857;SDS011;39763;51.188;6.690;2022-08-06T08:52:43;6.63;;;2.30;;
53857;SDS011;39763;51.188;6.690;2022-08-06T08:54:20;7.10;;;2.80;;
53857;SDS011;39763;51.188;6.690;2022-08-06T08:55:56;4.95;;;2.30;;
53857;SDS011;39763;51.188;6.690;2022-08-06T08:57:48;8.23;;;2.20;;
53857;SDS011;39763;51.188;6.690;2022-08-06T08:59:43;4.82;;;2.30;;
53857;SDS011;39763;51.188;6.690;2022-08-06T09:01:31;7.85;;;2.30;;
53857;SDS011;39763;51.188;6.690;2022-08-06T09:03:24;7.47;;;2.17;;
53857;SDS011;39763;51.188;6.690;2022-08-06T09:04:58;7.50;;;2.28;;
53857;SDS011;39763;51.188;6.690;2022-08-06T09:06:30;8.35;;;2.78;;
53857;SDS011;39763;51.188;6.690;2022-08-06T09:08:10;7.25;;;2.40;;
53857;SDS011;39763;51.188;6.690;2022-08-06T09:10:03;8.10;;;2.40;;
53857;SDS011;39763;51.188;6.690;2022-08-06T09:11:36;10.07;;;2.72;;
53857;SDS011;39763;51.188;6.690;2022-08-06T09:13:28;6.85;;;2.00;;
53857;SDS011;39763;51.188;6.690;2022-08-06T09:15:20;11.50;;;2.75;;
53857;SDS011;39763;51.188;6.690;2022-08-06T09:16:56;8.35;;;2.22;;
53857;SDS011;39763;51.188;6.690;2022-08-06T09:18:30;6.53;;;2.03;;
53857;SDS011;39763;51.188;6.690;2022-08-06T09:20:06;6.40;;;2.00;;
53857;SDS011;39763;51.188;6.690;2022-08-06T09:21:41;7.95;;;2.90;;
53857;SDS011;39763;51.188;6.690;2022-08-06T09:23:21;8.05;;;3.00;;
53857;SDS011;39763;51.188;6.690;2022-08-06T09:24:53;6.93;;;2.38;;
53857;SDS011;39763;51.188;6.690;2022-08-06T09:26:25;4.88;;;1.88;;
53857;SDS011;39763;51.188;6.690;2022-08-06T09:28:26;3.67;;;1.90;;
53857;SDS011;39763;51.188;6.690;2022-08-06T09:30:04;4.30;;;1.58;;
53857;SDS011;39763;51.188;6.690;2022-08-06T09:31:58;5.10;;;2.20;;
53857;SDS011;39763;51.188;6.690;2022-08-06T09:33:31;5.22;;;2.00;;
53857;SDS011;39763;51.188;6.690;2022-08-06T09:35:26;8.02;;;2.67;;
53857;SDS011;39763;51.188;6.690;2022-08-06T09:37:25;7.32;;;2.13;;
53857;SDS011;39763;51.188;6.690;2022-08-06T09:39:27;6.28;;;2.17;;
53857;SDS011;39763;51.188;6.690;2022-08-06T09:41:17;6.40;;;1.75;;
53857;SDS011;39763;51.188;6.690;2022-08-06T09:42:54;5.38;;;1.90;;
53857;SDS011;39763;51.188;6.690;2022-08-06T09:44:27;6.03;;;1.55;;
53857;SDS011;39763;51.188;6.690;2022-08-06T09:46:08;4.15;;;1.77;;
53857;SDS011;39763;51.188;6.690;2022-08-06T09:47:40;5.55;;;1.80;;
53857;SDS011;39763;51.188;6.690;2022-08-06T09:49:12;5.32;;;2.00;;
53857;SDS011;39763;51.188;6.690;2022-08-06T09:51:06;5.55;;;2.40;;
53857;SDS011;39763;51.188;6.690;2022-08-06T09:53:12;6.03;;;2.30;;
53857;SDS011;39763;51.188;6.690;2022-08-06T09:54:51;7.78;;;2.20;;
53857;SDS011;39763;51.188;6.690;2022-08-06T09:56:24;5.65;;;2.20;;
53857;SDS011;39763;51.188;6.690;2022-08-06T09:57:58;3.85;;;1.80;;
53857;SDS011;39763;51.188;6.690;2022-08-06T09:59:40;4.18;;;2.00;;
53857;SDS011;39763;51.188;6.690;2022-08-06T10:01:14;5.88;;;2.40;;
53857;SDS011;39763;51.188;6.690;2022-08-06T10:04:25;6.97;;;2.50;;
53857;SDS011;39763;51.188;6.690;2022-08-06T10:06:10;8.50;;;2.70;;
53857;SDS011;39763;51.188;6.690;2022-08-06T10:07:46;8.38;;;2.67;;
53857;SDS011;39763;51.188;6.690;2022-08-06T10:09:23;5.32;;;2.33;;
53857;SDS011;39763;51.188;6.690;2022-08-06T10:11:15;5.30;;;2.08;;
53857;SDS011;39763;51.188;6.690;2022-08-06T10:13:13;4.18;;;1.77;;
53857;SDS011;39763;51.188;6.690;2022-08-06T10:14:50;5.82;;;1.73;;